This is the latest recevied weather packets stored in our database for station/object DL9SEC-13. If no packets are shown the sender has not sent any weather packets the latest 10 day(s).
| Time | Temp. | Humidity | Pressure | Rain* | Wind** | Luminosity | Snow |
|---|---|---|---|---|---|---|---|
| 1778010904 | 13.33° C | 94% | 1011.2 hPa | 0 mm | - | - | - |
| 1778010003 | 13.33° C | 94% | 1011.1 hPa | 0 mm | - | - | - |
| 1778009103 | 13.33° C | 94% | 1011.1 hPa | 0 mm | - | - | - |
| 1778008203 | 13.33° C | 94% | 1010.9 hPa | 0.76 mm | - | - | - |
| 1778007303 | 13.89° C | 93% | 1010.9 hPa | 0.76 mm | - | - | - |
| 1778006403 | 13.89° C | 93% | 1011.1 hPa | 0.76 mm | - | - | - |
| 1778005504 | 13.89° C | 91% | 1011 hPa | 0.76 mm | - | - | - |
| 1778004603 | 14.44° C | 89% | 1011 hPa | 0 mm | - | - | - |
| 1778003702 | 15° C | 86% | 1010.9 hPa | 0 mm | - | - | - |
| 1778002804 | 15° C | 86% | 1010.7 hPa | 0 mm | - | - | - |
| 1778001903 | 16.11° C | 80% | 1010.7 hPa | 0 mm | - | - | - |
| 1778001003 | 18.33° C | 78% | 1010.5 hPa | 0 mm | - | - | - |
| 1778000103 | 18.33° C | 69% | 1010.5 hPa | 0 mm | - | - | - |
| 1777999203 | 16.67° C | 76% | 1010.6 hPa | 0 mm | - | - | - |
| 1777998303 | 16.11° C | 80% | 1010.5 hPa | 0 mm | - | - | - |
| 1777997403 | 16.11° C | 80% | 1010.6 hPa | 0 mm | - | - | - |
| 1777996503 | 16.11° C | 81% | 1010.6 hPa | 0 mm | - | - | - |
| 1777995603 | 16.67° C | 82% | 1010.8 hPa | 0 mm | - | - | - |
| 1777994703 | 15° C | 87% | 1010.9 hPa | 0 mm | - | - | - |
| 1777993803 | 14.44° C | 89% | 1011.1 hPa | 0 mm | - | - | - |
| 1777992903 | 14.44° C | 90% | 1011.3 hPa | 0 mm | - | - | - |
| 1777992003 | 13.89° C | 91% | 1011.5 hPa | 0.25 mm | - | - | - |
| 1777991103 | 14.44° C | 91% | 1011.6 hPa | 0.25 mm | - | - | - |
| 1777989303 | 14.44° C | 91% | 1011.9 hPa | 0.76 mm | - | - | - |
| 1777988403 | 15° C | 89% | 1011.9 hPa | 3.05 mm | - | - | - |
* Rain latest hour (hover to see other rain measurements)
** Current wind speed in m/s (hover to see current wind gust speed)